createdAt,value
2023-01-05T00:01:50.797Z,3.60
2023-01-05T00:04:19.121Z,1.00
2023-01-05T00:06:47.566Z,0.75
2023-01-05T00:09:17.840Z,0.80
2023-01-05T00:12:03.332Z,0.70
2023-01-05T00:14:53.100Z,0.60
2023-01-05T00:17:41.520Z,0.68
2023-01-05T00:20:33.752Z,0.80
2023-01-05T00:23:02.600Z,0.70
2023-01-05T00:25:33.933Z,1.13
2023-01-05T00:28:02.093Z,0.70
2023-01-05T00:30:34.251Z,0.63
2023-01-05T00:33:02.691Z,0.70
2023-01-05T00:35:32.834Z,0.70
2023-01-05T00:38:02.541Z,0.50
2023-01-05T00:40:31.082Z,1.55
2023-01-05T00:42:59.157Z,0.60
2023-01-05T00:45:27.545Z,0.50
2023-01-05T00:47:57.135Z,0.90
2023-01-05T00:50:25.553Z,0.60
2023-01-05T00:52:53.677Z,0.60
2023-01-05T00:55:21.850Z,0.73
2023-01-05T00:57:50.072Z,0.60
2023-01-05T01:00:20.228Z,0.80
2023-01-05T01:02:48.807Z,0.60
2023-01-05T01:05:18.628Z,0.50
2023-01-05T01:07:48.669Z,0.65
2023-01-05T01:10:16.973Z,1.08
2023-01-05T01:12:45.168Z,0.90
2023-01-05T01:15:13.433Z,0.70
2023-01-05T01:17:43.391Z,0.98
2023-01-05T01:20:11.658Z,0.60
2023-01-05T01:22:41.307Z,0.47
2023-01-05T01:25:10.369Z,0.47
2023-01-05T01:27:38.483Z,0.65
2023-01-05T01:30:07.917Z,0.50
2023-01-05T01:32:36.081Z,0.50
2023-01-05T01:35:04.318Z,0.77
2023-01-05T01:37:32.626Z,0.50
2023-01-05T01:40:02.889Z,0.50
2023-01-05T01:42:31.929Z,0.70
2023-01-05T01:45:01.696Z,0.50
2023-01-05T01:47:41.563Z,0.82
2023-01-05T01:50:16.361Z,0.50
2023-01-05T01:52:46.829Z,0.50
2023-01-05T01:55:16.898Z,0.50
2023-01-05T01:57:46.850Z,0.65
2023-01-05T02:00:15.796Z,0.60
2023-01-05T02:02:49.522Z,0.60
2023-01-05T02:05:23.987Z,0.60
2023-01-05T02:07:52.019Z,1.77
2023-01-05T02:10:37.426Z,0.63
2023-01-05T02:13:31.193Z,0.50
2023-01-05T02:16:07.280Z,0.50
2023-01-05T02:19:07.682Z,0.50
2023-01-05T02:21:54.331Z,0.50
2023-01-05T02:25:01.096Z,0.60
2023-01-05T02:27:41.130Z,0.60
2023-01-05T02:30:43.992Z,0.63
2023-01-05T02:33:24.288Z,0.50
2023-01-05T02:35:59.847Z,0.50
2023-01-05T02:38:35.805Z,0.50
2023-01-05T02:41:30.565Z,0.52
2023-01-05T02:44:01.931Z,1.10
2023-01-05T02:46:31.895Z,0.50
2023-01-05T02:49:02.498Z,0.85
2023-01-05T02:51:34.913Z,0.80
2023-01-05T02:54:09.225Z,0.60
2023-01-05T02:56:41.931Z,0.60
2023-01-05T02:59:14.795Z,0.50
2023-01-05T03:01:50.532Z,0.60
2023-01-05T03:04:23.774Z,0.73
2023-01-05T03:06:56.884Z,0.50
2023-01-05T03:09:29.928Z,0.60
2023-01-05T03:12:22.253Z,0.90
2023-01-05T03:14:55.431Z,0.73
2023-01-05T03:17:28.914Z,0.50
2023-01-05T03:19:58.624Z,0.63
2023-01-05T03:22:48.906Z,0.50
2023-01-05T03:25:38.928Z,1.13
2023-01-05T03:28:29.947Z,0.50
2023-01-05T03:31:18.594Z,0.50
2023-01-05T03:34:14.268Z,0.60
2023-01-05T03:36:47.460Z,0.60
2023-01-05T03:39:18.177Z,0.50
2023-01-05T03:41:49.556Z,0.60
2023-01-05T03:44:17.805Z,0.50
2023-01-05T03:46:47.467Z,0.52
2023-01-05T03:49:19.316Z,0.50
2023-01-05T03:51:47.554Z,0.50
2023-01-05T03:54:15.602Z,0.73
2023-01-05T03:57:00.119Z,0.50
2023-01-05T03:59:29.553Z,1.85
2023-01-05T04:02:00.257Z,0.50
2023-01-05T04:04:30.479Z,0.60
2023-01-05T04:06:59.806Z,0.73
2023-01-05T04:09:28.845Z,0.70
2023-01-05T04:12:00.106Z,0.50
2023-01-05T04:14:32.540Z,0.50
2023-01-05T04:17:01.353Z,0.50
2023-01-05T04:19:30.930Z,0.50
2023-01-05T04:21:59.347Z,0.50
2023-01-05T04:24:30.430Z,0.50
2023-01-05T04:27:00.700Z,0.55
2023-01-05T04:29:29.346Z,0.50
2023-01-05T04:31:58.271Z,0.75
2023-01-05T04:34:27.125Z,0.50
2023-01-05T04:36:59.095Z,0.50
2023-01-05T04:39:36.347Z,0.55
2023-01-05T04:42:04.820Z,0.50
2023-01-05T04:44:34.695Z,0.50
2023-01-05T04:47:05.758Z,0.50
2023-01-05T04:49:35.308Z,0.50
2023-01-05T04:52:06.307Z,0.50
2023-01-05T04:54:35.657Z,0.50
2023-01-05T04:57:05.928Z,0.60
2023-01-05T04:59:35.223Z,0.50
2023-01-05T05:02:05.495Z,0.50
2023-01-05T05:04:35.286Z,0.50
2023-01-05T05:07:07.133Z,0.60
2023-01-05T05:09:35.583Z,0.60
2023-01-05T05:12:04.322Z,0.50
2023-01-05T05:14:34.030Z,0.50
2023-01-05T05:17:14.745Z,0.50
2023-01-05T05:20:00.426Z,0.50
2023-01-05T05:22:30.375Z,0.60
2023-01-05T05:25:00.207Z,0.73
2023-01-05T05:27:28.708Z,0.40
2023-01-05T05:30:15.889Z,0.50
2023-01-05T05:32:44.747Z,0.40
2023-01-05T05:35:13.168Z,0.60
2023-01-05T05:38:02.275Z,0.50
2023-01-05T05:40:30.731Z,0.73
2023-01-05T05:42:58.911Z,0.63
2023-01-05T05:45:27.605Z,0.50
2023-01-05T05:47:56.058Z,0.70
2023-01-05T06:00:22.519Z,0.60
2023-01-05T07:52:00.406Z,4.43
2023-01-05T07:54:48.990Z,4.13
2023-01-05T08:05:00.222Z,5.72
2023-01-05T08:08:24.719Z,4.45
2023-01-05T08:11:14.588Z,4.85
2023-01-05T08:26:13.185Z,4.07
2023-01-05T08:28:52.563Z,4.65
2023-01-05T08:31:50.361Z,2.28
2023-01-05T09:13:54.867Z,7.72
2023-01-05T09:16:42.913Z,6.85
2023-01-05T09:19:14.474Z,5.18
2023-01-05T09:21:42.907Z,11.15
2023-01-05T10:04:40.665Z,4.95
2023-01-05T10:07:21.961Z,9.55
2023-01-05T10:09:50.732Z,11.27
2023-01-05T10:12:41.625Z,9.63
2023-01-05T10:15:14.933Z,4.13
2023-01-05T10:17:44.873Z,9.82
2023-01-05T10:20:24.941Z,9.30
2023-01-05T10:23:02.545Z,13.50
2023-01-05T10:25:39.016Z,3.22
2023-01-05T10:28:22.127Z,12.02
2023-01-05T10:30:59.120Z,8.90
2023-01-05T10:33:51.853Z,7.85
2023-01-05T10:37:09.862Z,9.20
2023-01-05T10:40:01.910Z,7.63
2023-01-05T10:42:52.781Z,10.18
2023-01-05T10:45:31.704Z,7.45
2023-01-05T10:48:01.047Z,8.82
2023-01-05T10:50:35.793Z,7.75
2023-01-05T10:53:13.718Z,8.60
2023-01-05T10:56:04.463Z,12.10
2023-01-05T10:58:34.275Z,7.45
2023-01-05T11:01:06.172Z,11.13
2023-01-05T11:04:23.071Z,8.00
2023-01-05T11:06:36.162Z,8.18
2023-01-05T11:09:22.381Z,8.07
2023-01-05T11:11:56.108Z,10.15
2023-01-05T11:14:25.226Z,6.43
2023-01-05T11:16:55.259Z,5.72
2023-01-05T11:19:33.751Z,7.00
2023-01-05T11:22:02.681Z,9.07
2023-01-05T11:24:51.432Z,7.20
2023-01-05T11:27:25.554Z,8.18
2023-01-05T11:30:20.406Z,6.00
2023-01-05T11:32:49.402Z,5.30
2023-01-05T11:35:21.085Z,8.80
2023-01-05T11:37:49.555Z,14.32
2023-01-05T11:40:25.746Z,9.65
2023-01-05T11:42:57.464Z,14.32
2023-01-05T11:45:28.761Z,5.20
2023-01-05T11:47:59.569Z,12.27
2023-01-05T11:50:30.033Z,5.75
2023-01-05T11:53:00.350Z,13.90
2023-01-05T11:55:36.014Z,5.00
2023-01-05T11:58:23.666Z,7.70
2023-01-05T12:01:19.844Z,12.98
2023-01-05T12:04:02.638Z,7.35
2023-01-05T12:06:44.667Z,7.18
2023-01-05T12:09:22.317Z,4.82
2023-01-05T12:12:03.778Z,10.20
2023-01-05T12:15:11.324Z,8.13
2023-01-05T12:17:50.562Z,8.18
2023-01-05T12:20:39.879Z,11.40
2023-01-05T12:23:27.892Z,8.73
2023-01-05T12:26:04.386Z,8.00
2023-01-05T12:30:22.461Z,5.53
2023-01-05T12:35:21.486Z,15.60
2023-01-05T12:38:12.719Z,7.10
2023-01-05T12:40:59.729Z,14.52
2023-01-05T12:43:44.714Z,8.60
2023-01-05T12:46:25.534Z,13.65
2023-01-05T12:48:59.483Z,8.77
2023-01-05T12:51:34.474Z,14.48
2023-01-05T12:54:10.660Z,12.23
2023-01-05T12:56:43.488Z,12.35
2023-01-05T12:59:18.389Z,5.22
2023-01-05T13:02:00.771Z,5.93
2023-01-05T13:04:46.293Z,10.02
2023-01-05T13:07:22.848Z,13.50
2023-01-05T13:10:02.547Z,11.10
2023-01-05T13:12:33.150Z,10.77
2023-01-05T13:15:15.049Z,10.48
2023-01-05T13:17:48.391Z,11.60
2023-01-05T13:20:28.443Z,8.27
2023-01-05T13:23:04.399Z,10.40
2023-01-05T13:25:58.625Z,5.60
2023-01-05T13:28:29.652Z,6.43
2023-01-05T13:31:26.962Z,6.63
2023-01-05T13:34:15.445Z,5.85
2023-01-05T13:37:14.261Z,13.57
2023-01-05T13:39:51.876Z,7.75
2023-01-05T13:42:36.242Z,10.52
2023-01-05T13:45:23.793Z,8.80
2023-01-05T13:48:38.520Z,14.82
2023-01-05T13:51:38.827Z,15.80
2023-01-05T13:54:13.586Z,13.27
2023-01-05T13:56:46.692Z,13.25
2023-01-05T13:59:34.951Z,7.53
2023-01-05T14:02:34.286Z,7.88
2023-01-05T14:05:02.570Z,10.10
2023-01-05T14:07:32.429Z,9.98
2023-01-05T14:10:04.340Z,6.65
2023-01-05T14:12:48.968Z,8.45
2023-01-05T14:15:35.134Z,14.73
2023-01-05T14:18:07.471Z,13.13
2023-01-05T14:20:39.770Z,15.18
2023-01-05T14:23:45.227Z,8.05
2023-01-05T14:26:14.745Z,7.20
2023-01-05T14:28:46.147Z,8.60
2023-01-05T14:31:50.330Z,9.40
2023-01-05T14:34:21.571Z,16.90
2023-01-05T14:37:05.580Z,13.77
2023-01-05T14:39:42.248Z,4.20
2023-01-05T14:42:26.767Z,10.48
2023-01-05T14:45:00.601Z,9.95
2023-01-05T14:47:40.192Z,8.02
2023-01-05T14:50:28.388Z,13.25
2023-01-05T14:52:59.854Z,5.80
2023-01-05T14:55:38.864Z,9.35
2023-01-05T14:58:14.298Z,8.05
2023-01-05T15:00:48.433Z,9.68
2023-01-05T15:03:27.154Z,11.20
2023-01-05T15:06:01.713Z,10.48
2023-01-05T15:09:16.018Z,7.75
2023-01-05T15:12:07.078Z,11.02
2023-01-05T15:15:01.848Z,12.43
2023-01-05T15:18:06.590Z,6.38
2023-01-05T15:21:04.430Z,7.72
2023-01-05T15:23:56.924Z,9.43
2023-01-05T15:26:42.122Z,7.60
2023-01-05T15:29:52.336Z,9.50
2023-01-05T15:32:26.745Z,9.60
2023-01-05T15:35:01.566Z,13.30
2023-01-05T15:37:34.178Z,8.50
2023-01-05T15:40:04.361Z,10.55
2023-01-05T15:42:39.497Z,10.23
2023-01-05T15:45:17.489Z,12.02
2023-01-05T15:47:48.297Z,11.32
2023-01-05T15:50:23.270Z,7.78
2023-01-05T15:52:56.226Z,10.00
2023-01-05T15:55:26.188Z,21.17
2023-01-05T15:57:56.145Z,11.50
2023-01-05T16:00:27.279Z,5.45
2023-01-05T16:02:57.025Z,6.72
2023-01-05T16:05:27.006Z,11.73
2023-01-05T16:07:57.749Z,6.25
2023-01-05T16:10:30.885Z,8.45
2023-01-05T16:13:05.939Z,7.90
2023-01-05T16:15:36.736Z,7.80
2023-01-05T16:18:09.064Z,10.00
2023-01-05T16:20:41.849Z,10.05
2023-01-05T16:23:16.513Z,4.68
2023-01-05T16:26:05.462Z,6.03
2023-01-05T16:28:34.200Z,7.45
2023-01-05T16:31:14.231Z,6.85
2023-01-05T16:34:16.598Z,12.75
2023-01-05T16:37:00.429Z,12.00
2023-01-05T16:39:33.911Z,8.10
2023-01-05T16:42:29.423Z,8.32
2023-01-05T16:44:58.983Z,9.15
2023-01-05T16:47:36.935Z,7.15
2023-01-05T16:50:55.624Z,9.52
2023-01-05T16:53:25.315Z,9.95
2023-01-05T16:55:57.110Z,8.73
2023-01-05T16:58:38.250Z,6.30
2023-01-05T17:01:18.202Z,10.77
2023-01-05T17:03:46.602Z,8.07
2023-01-05T17:06:23.220Z,9.85
2023-01-05T17:08:52.816Z,6.47
2023-01-05T17:11:21.226Z,8.88
2023-01-05T17:13:52.340Z,8.25
2023-01-05T17:16:21.725Z,9.05
2023-01-05T17:18:51.003Z,6.57
2023-01-05T17:21:24.330Z,8.73
2023-01-05T17:23:55.189Z,5.07
2023-01-05T17:26:25.958Z,6.47
2023-01-05T17:28:58.654Z,5.35
2023-01-05T17:31:27.159Z,15.07
2023-01-05T17:33:55.478Z,12.25
2023-01-05T17:36:31.108Z,7.30
2023-01-05T17:39:00.577Z,5.20
2023-01-05T17:41:28.946Z,11.68
2023-01-05T17:43:57.196Z,19.63
2023-01-05T17:46:29.003Z,7.00
2023-01-05T17:48:58.878Z,5.30
2023-01-05T17:51:29.160Z,6.80
2023-01-05T17:53:59.396Z,7.35
2023-01-05T17:56:27.950Z,6.97
2023-01-05T17:58:56.346Z,7.97
2023-01-05T18:01:24.763Z,9.20
2023-01-05T18:03:53.107Z,6.05
2023-01-05T18:06:21.297Z,8.35
2023-01-05T18:08:50.814Z,10.80
2023-01-05T18:11:19.105Z,4.40
2023-01-05T18:13:47.412Z,6.32
2023-01-05T18:16:16.431Z,6.97
2023-01-05T18:18:44.920Z,5.30
2023-01-05T18:21:13.443Z,5.95
2023-01-05T18:23:42.766Z,7.15
2023-01-05T18:26:22.015Z,5.55
2023-01-05T18:28:50.195Z,5.20
2023-01-05T18:31:20.521Z,9.15
2023-01-05T18:33:48.734Z,7.55
2023-01-05T18:36:19.918Z,5.80
2023-01-05T18:38:48.269Z,6.80
2023-01-05T18:41:16.460Z,7.88
2023-01-05T18:43:46.438Z,7.25
2023-01-05T18:46:14.533Z,7.20
2023-01-05T18:48:42.637Z,5.25
2023-01-05T18:51:11.071Z,7.85
2023-01-05T18:53:39.642Z,7.03
2023-01-05T18:56:09.525Z,8.02
2023-01-05T18:58:38.044Z,5.00
2023-01-05T19:01:11.100Z,6.18
2023-01-05T19:03:42.820Z,3.25
2023-01-05T19:06:15.863Z,5.05
2023-01-05T19:08:45.020Z,4.88
2023-01-05T19:11:15.416Z,5.85
2023-01-05T19:13:45.246Z,6.32
2023-01-05T19:16:16.136Z,5.38
2023-01-05T19:18:46.174Z,7.18
2023-01-05T19:21:14.751Z,5.40
2023-01-05T19:23:43.170Z,5.50
2023-01-05T19:26:11.838Z,6.57
2023-01-05T19:28:41.374Z,3.92
2023-01-05T19:31:12.581Z,2.40
2023-01-05T19:33:43.315Z,4.35
2023-01-05T19:36:14.187Z,5.82
2023-01-05T19:38:43.763Z,3.45
2023-01-05T19:41:13.722Z,4.05
2023-01-05T19:43:43.001Z,11.43
2023-01-05T19:46:13.436Z,3.60
2023-01-05T19:48:44.294Z,8.90
2023-01-05T19:51:14.114Z,5.40
2023-01-05T19:53:43.930Z,3.95
2023-01-05T19:56:13.909Z,5.13
2023-01-05T19:58:43.890Z,4.53
2023-01-05T20:01:13.571Z,6.13
2023-01-05T20:03:46.851Z,5.07
2023-01-05T20:06:19.265Z,2.72
2023-01-05T20:08:52.533Z,3.58
2023-01-05T20:11:36.015Z,8.20
2023-01-05T20:14:05.375Z,3.55
2023-01-05T20:16:33.770Z,4.05
2023-01-05T20:19:03.645Z,6.90
2023-01-05T20:21:32.712Z,4.07
2023-01-05T20:24:01.990Z,4.70
2023-01-05T20:26:33.953Z,13.05
2023-01-05T20:29:03.083Z,2.65
2023-01-05T20:31:35.843Z,1.90
2023-01-05T20:34:07.859Z,1.98
2023-01-05T20:36:36.436Z,4.20
2023-01-05T20:39:06.996Z,3.80
2023-01-05T20:42:04.603Z,2.15
2023-01-05T20:44:35.353Z,7.82
2023-01-05T20:47:04.222Z,3.90
2023-01-05T20:49:40.905Z,4.07
2023-01-05T20:52:11.099Z,2.22
2023-01-05T20:54:40.199Z,2.40
2023-01-05T20:57:08.877Z,2.05
2023-01-05T20:59:40.764Z,2.40
2023-01-05T21:02:49.843Z,4.05
2023-01-05T21:05:19.648Z,2.50
2023-01-05T21:07:47.994Z,2.55
2023-01-05T21:10:16.588Z,2.10
2023-01-05T21:12:44.927Z,2.83
2023-01-05T21:15:13.386Z,3.88
2023-01-05T21:17:41.686Z,2.58
2023-01-05T21:20:10.768Z,2.78
2023-01-05T21:22:43.471Z,2.67
2023-01-05T21:25:19.061Z,2.90
2023-01-05T21:27:47.644Z,2.63
2023-01-05T21:30:16.035Z,3.28
2023-01-05T21:32:44.320Z,2.80
2023-01-05T21:35:12.650Z,2.70
2023-01-05T21:37:40.978Z,5.85
2023-01-05T21:40:12.457Z,3.15
2023-01-05T21:42:40.954Z,2.50
2023-01-05T21:45:11.251Z,2.58
2023-01-05T21:47:40.040Z,3.00
2023-01-05T21:50:10.204Z,3.00
2023-01-05T21:52:55.696Z,3.85
2023-01-05T21:55:51.678Z,3.03
2023-01-05T21:58:20.973Z,3.88
2023-01-05T22:00:49.305Z,2.50
2023-01-05T22:03:17.613Z,3.75
2023-01-05T22:05:45.839Z,3.85
2023-01-05T22:08:14.137Z,2.70
2023-01-05T22:10:43.766Z,4.20
2023-01-05T22:13:12.303Z,2.13
2023-01-05T22:15:40.809Z,4.00
2023-01-05T22:18:09.232Z,2.28
2023-01-05T22:20:37.470Z,2.17
2023-01-05T22:23:06.171Z,2.17
2023-01-05T22:25:35.821Z,5.53
2023-01-05T22:28:06.780Z,3.03
2023-01-05T22:30:35.482Z,2.63
2023-01-05T22:33:03.896Z,3.72
2023-01-05T22:35:32.252Z,2.70
2023-01-05T22:38:00.528Z,2.35
2023-01-05T22:40:28.779Z,1.73
2023-01-05T22:42:57.117Z,2.13
2023-01-05T22:45:27.194Z,1.90
2023-01-05T22:47:55.628Z,2.50
2023-01-05T22:50:23.798Z,1.63
2023-01-05T22:52:52.079Z,1.92
2023-01-05T22:55:20.428Z,3.75
2023-01-05T22:57:48.603Z,1.63
2023-01-05T23:00:17.065Z,2.53
2023-01-05T23:02:46.624Z,3.25
2023-01-05T23:05:15.210Z,2.88
2023-01-05T23:07:43.773Z,1.88
2023-01-05T23:10:27.678Z,3.30
2023-01-05T23:12:56.158Z,3.35
2023-01-05T23:15:24.632Z,1.95
2023-01-05T23:17:54.187Z,2.15
2023-01-05T23:20:22.355Z,2.42
2023-01-05T23:22:50.477Z,3.22
2023-01-05T23:25:28.848Z,2.78
2023-01-05T23:27:57.298Z,2.65
2023-01-05T23:30:26.084Z,2.80
2023-01-05T23:32:55.734Z,2.80
2023-01-05T23:35:24.036Z,4.55
2023-01-05T23:37:52.312Z,3.42
2023-01-05T23:40:20.815Z,2.20
2023-01-05T23:42:49.131Z,2.78
2023-01-05T23:45:17.371Z,1.77
2023-01-05T23:47:46.009Z,1.73
2023-01-05T23:50:15.668Z,3.78
2023-01-05T23:52:44.054Z,2.05
2023-01-05T23:55:12.552Z,2.00
2023-01-05T23:57:40.826Z,1.88
